Time;durP1;ratioP1;P1;durP2;ratioP2;P2;SDS_P1;SDS_P2;PMS_P1;PMS_P2;Temp;Humidity;BMP_temperature;BMP_pressure;BME280_temperature;BME280_humidity;BME280_pressure;Samples;Min_cycle;Max_cycle;Signal;HPM_P1;HPM_P2
2023/03/24 00:00:38;;;;;;;3.80;3.50;;;13.80;99.90;;;;;;5095420;28;20469;-77
2023/03/24 00:03:07;;;;;;;3.00;2.80;;;13.80;99.90;;;;;;5093373;28;20461;-80
2023/03/24 00:05:34;;;;;;;5.73;2.83;;;13.80;99.90;;;;;;5078834;28;20454;-79
2023/03/24 00:08:01;;;;;;;3.67;3.37;;;13.80;99.90;;;;;;5075652;28;20466;-79
2023/03/24 00:10:33;;;;;;;3.27;2.97;;;13.80;99.90;;;;;;5075230;28;20465;-80
2023/03/24 00:13:04;;;;;;;3.27;2.63;;;13.70;99.90;;;;;;5074401;28;20795;-78
2023/03/24 00:15:32;;;;;;;3.57;2.90;;;13.80;99.90;;;;;;5090601;28;20584;-80
2023/03/24 00:17:59;;;;;;;3.30;3.00;;;13.80;99.90;;;;;;5094007;28;20500;-78
2023/03/24 00:20:28;;;;;;;4.63;3.80;;;13.80;99.90;;;;;;5094615;28;20500;-78
2023/03/24 00:22:57;;;;;;;3.72;3.38;;;13.80;99.90;;;;;;5093726;28;20227;-77
2023/03/24 00:25:28;;;;;;;4.87;3.67;;;13.80;99.90;;;;;;5093953;28;20298;-78
2023/03/24 00:27:56;;;;;;;4.73;3.57;;;13.80;99.90;;;;;;5094414;28;20465;-78
2023/03/24 00:30:24;;;;;;;4.70;4.30;;;13.80;99.90;;;;;;5094538;28;20464;-77
2023/03/24 00:32:51;;;;;;;3.17;2.88;;;13.80;99.90;;;;;;5083097;28;20478;-77
2023/03/24 00:35:18;;;;;;;3.10;2.90;;;13.80;99.90;;;;;;5074679;28;20224;-77
2023/03/24 00:37:48;;;;;;;2.42;2.22;;;13.80;99.90;;;;;;5089681;28;20875;-77
2023/03/24 00:40:19;;;;;;;3.17;2.87;;;13.80;99.90;;;;;;5094500;28;20258;-77
2023/03/24 00:42:48;;;;;;;2.43;2.10;;;13.80;99.90;;;;;;5094736;28;20461;-77
2023/03/24 00:45:18;;;;;;;3.03;2.37;;;13.70;99.90;;;;;;5094806;28;20498;-79
2023/03/24 00:47:48;;;;;;;2.87;2.67;;;13.70;99.90;;;;;;5094829;28;20493;-79
2023/03/24 00:50:17;;;;;;;2.50;2.30;;;13.70;99.90;;;;;;5095319;28;20457;-76
2023/03/24 00:52:46;;;;;;;3.93;2.70;;;13.70;99.90;;;;;;5093526;28;20466;-78
2023/03/24 00:55:16;;;;;;;2.90;2.70;;;13.70;99.90;;;;;;5094132;28;20468;-77
2023/03/24 00:57:49;;;;;;;3.30;3.00;;;13.70;99.90;;;;;;5089557;28;20465;-77
2023/03/24 01:00:19;;;;;;;3.08;2.88;;;13.70;99.90;;;;;;5093315;28;20532;-79
2023/03/24 01:02:47;;;;;;;3.10;2.53;;;13.70;99.90;;;;;;5093833;28;20237;-79
2023/03/24 01:05:16;;;;;;;2.50;2.30;;;13.70;99.90;;;;;;5091370;28;20219;-77
2023/03/24 01:07:43;;;;;;;2.80;2.60;;;13.60;99.90;;;;;;5092720;28;20469;-77
2023/03/24 01:10:14;;;;;;;7.72;6.85;;;13.70;99.90;;;;;;5090476;28;20543;-79
2023/03/24 01:12:41;;;;;;;8.13;7.33;;;13.70;99.90;;;;;;5072595;28;20234;-79
2023/03/24 01:15:15;;;;;;;7.20;6.50;;;13.70;99.90;;;;;;5080089;28;20462;-79
2023/03/24 01:17:42;;;;;;;3.90;3.60;;;13.70;99.90;;;;;;5072572;28;20224;-79
2023/03/24 01:20:11;;;;;;;3.00;2.75;;;13.70;99.90;;;;;;5072262;28;20721;-77
2023/03/24 01:22:39;;;;;;;2.27;2.17;;;13.70;99.90;;;;;;5073021;28;20286;-77
2023/03/24 01:25:08;;;;;;;3.67;2.80;;;13.70;99.90;;;;;;5081531;28;20491;-79
2023/03/24 01:27:39;;;;;;;2.58;2.42;;;13.70;99.90;;;;;;5073622;28;20474;-78
2023/03/24 01:30:08;;;;;;;2.97;2.77;;;13.70;99.90;;;;;;5092252;28;20302;-79
2023/03/24 01:32:35;;;;;;;2.15;2.05;;;13.70;99.90;;;;;;5092386;28;20545;-78
2023/03/24 01:35:03;;;;;;;2.67;2.47;;;13.70;99.90;;;;;;5092681;28;20227;-77
2023/03/24 01:37:30;;;;;;;4.33;2.30;;;13.70;99.90;;;;;;5092245;28;20480;-78
2023/03/24 01:39:59;;;;;;;2.73;2.53;;;13.70;99.90;;;;;;5092132;28;20981;-78
2023/03/24 01:42:28;;;;;;;2.90;2.65;;;13.70;99.90;;;;;;5092387;28;20473;-77
2023/03/24 01:45:00;;;;;;;2.75;2.55;;;13.80;99.90;;;;;;5092344;28;20223;-77
2023/03/24 01:47:27;;;;;;;2.60;2.40;;;13.80;99.90;;;;;;5092149;28;20245;-77
2023/03/24 01:49:58;;;;;;;2.57;2.37;;;13.70;99.90;;;;;;5091310;28;20473;-78
2023/03/24 01:52:35;;;;;;;3.70;2.90;;;13.80;99.90;;;;;;5093449;28;20465;-77
2023/03/24 01:55:11;;;;;;;1.87;1.77;;;13.80;99.90;;;;;;5092327;28;20473;-78
2023/03/24 01:57:44;;;;;;;3.17;2.90;;;13.80;99.90;;;;;;5088557;28;20978;-79
2023/03/24 02:00:18;;;;;;;4.23;2.63;;;13.80;99.90;;;;;;5071687;28;20473;-78
2023/03/24 02:02:48;;;;;;;3.25;2.70;;;13.80;99.90;;;;;;5074312;28;20466;-79
2023/03/24 02:05:15;;;;;;;2.92;2.72;;;13.70;99.90;;;;;;5095989;28;20241;-78
2023/03/24 02:07:51;;;;;;;3.17;2.95;;;13.70;99.90;;;;;;5099647;28;20249;-77
2023/03/24 02:10:20;;;;;;;3.17;2.65;;;13.70;99.90;;;;;;5082030;28;20227;-79
2023/03/24 02:12:47;;;;;;;2.47;2.30;;;13.70;99.90;;;;;;5086019;28;20220;-77
2023/03/24 02:15:20;;;;;;;2.60;2.40;;;13.70;99.90;;;;;;5090569;28;20472;-77
2023/03/24 02:17:58;;;;;;;3.90;3.20;;;13.70;99.90;;;;;;5089032;28;20235;-77
2023/03/24 02:20:44;;;;;;;5.50;4.50;;;13.70;99.90;;;;;;5097034;28;20461;-79
2023/03/24 02:23:54;;;;;;;5.30;4.35;;;13.70;99.90;;;;;;5091716;28;20480;-78
2023/03/24 02:26:50;;;;;;;4.55;3.30;;;13.70;99.90;;;;;;5065503;28;20292;-79
2023/03/24 02:29:55;;;;;;;3.83;2.53;;;13.70;99.90;;;;;;5073526;28;20743;-79
2023/03/24 02:32:55;;;;;;;2.33;2.13;;;13.60;99.90;;;;;;5089355;28;20464;-79
2023/03/24 02:36:00;;;;;;;3.38;2.45;;;13.60;99.90;;;;;;5090833;28;20457;-78
2023/03/24 02:38:42;;;;;;;3.30;3.00;;;13.70;99.90;;;;;;5083885;28;20219;-78
2023/03/24 02:41:17;;;;;;;3.10;2.80;;;13.70;99.90;;;;;;5091959;28;20227;-76
2023/03/24 02:43:52;;;;;;;3.40;3.00;;;13.70;99.90;;;;;;5092108;28;20478;-80
2023/03/24 02:46:25;;;;;;;3.60;3.33;;;13.70;99.90;;;;;;5092175;28;20268;-78
2023/03/24 02:49:07;;;;;;;3.43;2.37;;;13.70;99.90;;;;;;5088069;28;20578;-78
2023/03/24 02:51:39;;;;;;;4.40;3.20;;;13.70;99.90;;;;;;5100619;28;20529;-80
2023/03/24 02:54:11;;;;;;;9.23;6.87;;;13.70;99.90;;;;;;5092366;28;20760;-79
2023/03/24 02:56:43;;;;;;;3.20;2.90;;;13.80;99.90;;;;;;5079164;28;20477;-77
2023/03/24 02:59:16;;;;;;;2.73;2.53;;;13.80;99.90;;;;;;5083090;28;20523;-78
2023/03/24 03:01:53;;;;;;;3.10;2.73;;;13.80;99.90;;;;;;5096205;28;20526;-78
2023/03/24 03:04:25;;;;;;;2.50;2.30;;;13.90;99.90;;;;;;5096518;28;20461;-78
2023/03/24 03:06:57;;;;;;;3.28;3.05;;;13.90;99.90;;;;;;5095999;28;20469;-76
2023/03/24 03:09:25;;;;;;;2.55;2.45;;;13.90;99.90;;;;;;5095684;28;20579;-79
2023/03/24 03:11:57;;;;;;;4.40;3.78;;;13.90;99.90;;;;;;5096488;28;20237;-80
2023/03/24 03:14:33;;;;;;;2.80;2.60;;;13.90;99.90;;;;;;5095687;28;20246;-77
2023/03/24 03:22:59;;;;;;;2.83;2.63;;;13.90;99.90;;;;;;5033151;28;20228;-77
2023/03/24 03:25:31;;;;;;;3.28;2.42;;;13.90;99.90;;;;;;5034709;28;20463;-79
2023/03/24 03:28:03;;;;;;;2.87;2.30;;;13.90;99.90;;;;;;5095580;28;20223;-77
2023/03/24 03:30:36;;;;;;;3.00;2.70;;;13.90;99.90;;;;;;5096064;28;20523;-77
2023/03/24 03:33:06;;;;;;;2.70;2.50;;;13.90;99.90;;;;;;5096004;28;20472;-79
2023/03/24 03:35:38;;;;;;;3.45;2.70;;;13.90;99.90;;;;;;5097306;28;20465;-77
2023/03/24 03:38:12;;;;;;;3.08;2.88;;;13.90;99.90;;;;;;5094710;28;20621;-77
2023/03/24 03:40:50;;;;;;;2.70;2.50;;;13.90;99.90;;;;;;5095822;28;20225;-79
2023/03/24 03:43:19;;;;;;;3.50;3.20;;;13.90;99.90;;;;;;5096482;28;20280;-79
2023/03/24 03:45:46;;;;;;;2.90;2.63;;;13.90;99.90;;;;;;5094870;28;20705;-80
2023/03/24 03:48:14;;;;;;;2.60;2.40;;;13.90;99.90;;;;;;5096524;28;20539;-78
2023/03/24 03:50:41;;;;;;;3.70;3.40;;;13.90;99.90;;;;;;5095307;28;20510;-80
2023/03/24 03:53:08;;;;;;;2.70;2.50;;;13.90;99.90;;;;;;5095255;28;20504;-79
2023/03/24 03:55:37;;;;;;;3.30;2.17;;;13.80;99.90;;;;;;5095321;28;20223;-80
2023/03/24 03:58:07;;;;;;;3.45;3.15;;;13.80;99.90;;;;;;5085856;28;20553;-78
2023/03/24 04:00:36;;;;;;;2.85;2.58;;;13.80;99.90;;;;;;5074736;28;20224;-79
2023/03/24 04:03:31;;;;;;;2.75;2.53;;;13.70;99.90;;;;;;5077470;28;20250;-77
2023/03/24 04:06:03;;;;;;;3.63;2.75;;;13.80;99.90;;;;;;5086304;28;21326;-79
2023/03/24 04:08:46;;;;;;;3.30;2.63;;;13.70;99.90;;;;;;5086944;28;20231;-79
2023/03/24 04:11:41;;;;;;;3.60;3.30;;;13.70;99.90;;;;;;5087374;28;20293;-77
2023/03/24 04:14:27;;;;;;;3.93;2.80;;;13.70;99.90;;;;;;5074922;28;20220;-77
2023/03/24 04:17:05;;;;;;;4.43;3.00;;;13.70;99.90;;;;;;5072286;28;20561;-80
2023/03/24 04:19:44;;;;;;;4.40;4.00;;;13.70;99.90;;;;;;5074904;28;20473;-78
2023/03/24 04:22:24;;;;;;;3.30;3.10;;;13.70;99.90;;;;;;5074341;28;20569;-77
2023/03/24 04:24:55;;;;;;;4.70;3.33;;;13.60;99.90;;;;;;5074416;28;20265;-77
2023/03/24 04:27:37;;;;;;;4.40;3.10;;;13.60;99.90;;;;;;5086302;28;20535;-79
2023/03/24 04:30:14;;;;;;;6.50;5.68;;;13.60;99.90;;;;;;5074284;28;20461;-77
2023/03/24 04:32:47;;;;;;;3.67;3.40;;;13.60;99.90;;;;;;5089036;28;20226;-76
2023/03/24 04:35:25;;;;;;;4.43;4.13;;;13.60;99.90;;;;;;5094021;28;20461;-77
2023/03/24 04:37:53;;;;;;;3.25;3.05;;;13.60;99.90;;;;;;5093934;27;20483;-78
2023/03/24 04:40:25;;;;;;;4.33;4.03;;;13.60;99.90;;;;;;5094182;28;20231;-79
2023/03/24 04:42:54;;;;;;;4.33;4.03;;;13.60;99.90;;;;;;5076576;28;20501;-76
2023/03/24 04:45:24;;;;;;;4.70;4.03;;;13.60;99.90;;;;;;5072933;28;20469;-79
2023/03/24 04:47:56;;;;;;;4.00;3.60;;;13.60;99.90;;;;;;5071941;28;20474;-79
2023/03/24 04:50:31;;;;;;;3.40;3.15;;;13.70;99.90;;;;;;5073278;28;20506;-77
2023/03/24 04:52:59;;;;;;;7.80;6.07;;;13.70;99.90;;;;;;5073198;28;20235;-79
2023/03/24 04:55:53;;;;;;;4.53;4.20;;;13.70;99.90;;;;;;5074058;28;20465;-76
2023/03/24 04:58:22;;;;;;;3.63;3.33;;;13.70;99.90;;;;;;5092213;28;20457;-80
2023/03/24 05:00:50;;;;;;;9.35;6.72;;;13.70;99.90;;;;;;5091222;28;20562;-77
2023/03/24 05:03:19;;;;;;;4.60;4.13;;;13.70;99.90;;;;;;5090787;28;20229;-79
2023/03/24 05:05:48;;;;;;;5.37;3.73;;;13.70;99.90;;;;;;5096279;28;20480;-77
2023/03/24 05:08:16;;;;;;;7.30;6.70;;;13.80;99.90;;;;;;5090769;28;20496;-76
2023/03/24 05:10:44;;;;;;;4.55;4.15;;;13.80;99.90;;;;;;5090713;28;20515;-79
2023/03/24 05:13:11;;;;;;;8.93;6.97;;;13.80;99.90;;;;;;5092669;28;20227;-81
2023/03/24 05:15:38;;;;;;;5.03;4.37;;;13.80;99.90;;;;;;5094255;28;20292;-81
2023/03/24 05:18:08;;;;;;;4.53;4.03;;;13.70;99.90;;;;;;5092990;28;20477;-79
2023/03/24 05:20:37;;;;;;;5.30;4.10;;;13.70;99.90;;;;;;5094101;28;20219;-79
2023/03/24 05:23:04;;;;;;;4.43;4.00;;;13.80;99.90;;;;;;5092450;28;20469;-77
2023/03/24 05:25:31;;;;;;;5.57;5.07;;;13.80;99.90;;;;;;5093425;28;20472;-78
2023/03/24 05:27:58;;;;;;;4.87;4.37;;;13.90;99.90;;;;;;5093678;28;20477;-78
2023/03/24 05:30:26;;;;;;;7.47;4.60;;;13.90;99.90;;;;;;5092912;28;20923;-80
2023/03/24 05:32:53;;;;;;;4.43;4.03;;;13.90;99.90;;;;;;5093517;28;20491;-78
2023/03/24 05:35:20;;;;;;;5.60;4.60;;;14.00;99.90;;;;;;5092762;28;20526;-80
2023/03/24 05:37:48;;;;;;;5.00;4.57;;;14.00;99.90;;;;;;5093069;28;20527;-78
2023/03/24 05:40:15;;;;;;;5.03;4.53;;;14.00;99.90;;;;;;5092509;28;20548;-77
2023/03/24 05:42:43;;;;;;;4.33;3.97;;;13.90;99.90;;;;;;5092934;27;20844;-78
2023/03/24 05:45:14;;;;;;;5.17;4.67;;;14.00;99.90;;;;;;5092178;28;20497;-78
2023/03/24 05:47:41;;;;;;;5.67;5.17;;;14.00;99.90;;;;;;5093298;28;20476;-80
2023/03/24 05:50:08;;;;;;;4.10;3.80;;;14.00;99.90;;;;;;5093021;28;20526;-79
2023/03/24 05:52:35;;;;;;;4.37;3.93;;;14.00;99.90;;;;;;5093068;28;20469;-78
2023/03/24 05:55:04;;;;;;;4.13;3.73;;;14.00;99.90;;;;;;5093231;28;20784;-78
2023/03/24 05:57:33;;;;;;;5.00;4.60;;;14.00;99.90;;;;;;5093009;28;20441;-77
2023/03/24 06:00:07;;;;;;;4.50;3.97;;;14.10;99.90;;;;;;5093330;28;20461;-79
2023/03/24 06:02:38;;;;;;;5.83;4.97;;;14.10;99.90;;;;;;5072757;28;20475;-80
2023/03/24 06:05:07;;;;;;;4.83;4.43;;;14.20;99.90;;;;;;5072994;28;20470;-80
2023/03/24 06:07:34;;;;;;;4.70;4.20;;;14.10;99.90;;;;;;5071364;28;20462;-79
2023/03/24 06:10:06;;;;;;;11.20;6.00;;;14.10;99.90;;;;;;5073010;28;20496;-80
2023/03/24 06:12:34;;;;;;;4.23;3.83;;;14.20;99.90;;;;;;5071775;28;20477;-80
2023/03/24 06:15:02;;;;;;;6.13;4.60;;;14.20;99.90;;;;;;5072975;28;20470;-80
2023/03/24 06:17:32;;;;;;;6.93;6.23;;;14.20;99.90;;;;;;5071903;28;20581;-80
2023/03/24 06:20:04;;;;;;;5.27;4.77;;;14.20;99.90;;;;;;5069266;28;20481;-79
2023/03/24 06:22:35;;;;;;;7.13;5.70;;;14.20;99.90;;;;;;5080237;28;20561;-77
2023/03/24 06:25:04;;;;;;;6.43;5.30;;;14.20;99.90;;;;;;5072444;28;20466;-80
2023/03/24 06:27:31;;;;;;;4.83;4.17;;;14.30;99.90;;;;;;5071396;28;20462;-80
2023/03/24 06:29:58;;;;;;;8.20;4.50;;;14.30;99.90;;;;;;5071976;28;20824;-80
2023/03/24 06:32:26;;;;;;;5.97;5.20;;;14.30;99.90;;;;;;5071514;28;20467;-77
2023/03/24 06:34:58;;;;;;;4.47;4.07;;;14.30;99.90;;;;;;5074912;28;20485;-79
2023/03/24 06:37:27;;;;;;;3.80;3.50;;;14.30;99.90;;;;;;5075737;28;20470;-79
2023/03/24 06:39:54;;;;;;;5.50;4.73;;;14.40;99.90;;;;;;5076594;28;20485;-79
2023/03/24 06:42:22;;;;;;;9.80;6.67;;;14.40;99.90;;;;;;5076016;28;20466;-79
2023/03/24 06:44:52;;;;;;;4.67;4.27;;;14.40;99.90;;;;;;5078760;28;20484;-79
2023/03/24 06:47:19;;;;;;;5.03;4.37;;;14.40;99.90;;;;;;5079601;28;20542;-79
2023/03/24 06:49:46;;;;;;;4.33;3.93;;;14.40;99.90;;;;;;5076192;28;20531;-77
2023/03/24 06:52:19;;;;;;;5.20;4.70;;;14.50;99.90;;;;;;5076808;28;20478;-77
2023/03/24 06:54:46;;;;;;;4.50;4.10;;;14.40;99.90;;;;;;5075115;28;20771;-76
2023/03/24 06:57:16;;;;;;;3.83;3.53;;;14.50;99.90;;;;;;5082015;28;20469;-78
2023/03/24 06:59:45;;;;;;;4.93;4.53;;;14.50;99.90;;;;;;5083708;28;20470;-79
2023/03/24 07:02:15;;;;;;;4.30;3.90;;;14.50;99.90;;;;;;5080587;28;20466;-77
2023/03/24 07:04:44;;;;;;;4.53;3.90;;;14.60;99.90;;;;;;5083355;28;20831;-77
2023/03/24 07:07:12;;;;;;;6.83;5.57;;;14.60;99.90;;;;;;5084655;28;20473;-76
2023/03/24 07:09:39;;;;;;;5.20;4.43;;;14.60;99.90;;;;;;5087863;28;20466;-78
2023/03/24 07:12:07;;;;;;;6.27;5.37;;;14.60;99.90;;;;;;5087618;28;20565;-78
2023/03/24 07:14:34;;;;;;;6.27;5.80;;;14.70;99.90;;;;;;5076712;28;20466;-78
2023/03/24 07:17:02;;;;;;;5.77;5.20;;;14.70;99.90;;;;;;5075599;28;20547;-80
2023/03/24 07:19:31;;;;;;;6.37;5.77;;;14.80;99.90;;;;;;5074706;28;20466;-78
2023/03/24 07:21:58;;;;;;;4.87;3.90;;;14.80;99.90;;;;;;5075075;28;20483;-79
2023/03/24 07:24:25;;;;;;;7.10;6.40;;;14.80;99.90;;;;;;5075316;28;20477;-76
2023/03/24 07:26:55;;;;;;;4.90;4.40;;;14.90;99.90;;;;;;5075009;28;20465;-78
2023/03/24 07:29:22;;;;;;;11.80;10.70;;;15.00;99.90;;;;;;5075362;28;20794;-80
2023/03/24 07:31:53;;;;;;;8.73;7.93;;;15.00;99.90;;;;;;5075134;28;20927;-80
2023/03/24 07:34:21;;;;;;;6.30;5.70;;;15.10;99.90;;;;;;5075137;28;21019;-80
2023/03/24 07:36:48;;;;;;;5.93;5.30;;;15.10;99.90;;;;;;5074897;28;20528;-80
2023/03/24 07:39:16;;;;;;;5.73;5.20;;;15.10;99.90;;;;;;5075412;28;20587;-77
2023/03/24 07:41:43;;;;;;;4.73;4.13;;;15.20;99.90;;;;;;5074413;28;20466;-78
2023/03/24 07:44:10;;;;;;;5.40;4.30;;;15.20;99.90;;;;;;5074720;28;20959;-76
2023/03/24 07:46:40;;;;;;;4.40;3.87;;;15.20;99.90;;;;;;5074355;28;20473;-77
2023/03/24 07:49:08;;;;;;;7.37;5.83;;;15.20;99.90;;;;;;5075014;28;20466;-77
2023/03/24 07:51:38;;;;;;;5.60;5.10;;;15.20;99.90;;;;;;5074654;28;20561;-77
2023/03/24 07:54:07;;;;;;;10.20;9.33;;;15.20;99.90;;;;;;5075336;28;20458;-76
2023/03/24 07:56:34;;;;;;;7.57;6.40;;;15.20;99.90;;;;;;5074410;28;20463;-76
2023/03/24 07:59:01;;;;;;;7.27;6.57;;;15.20;99.90;;;;;;5074916;28;20466;-77
2023/03/24 08:01:32;;;;;;;16.57;13.53;;;15.20;99.90;;;;;;5075307;28;20541;-76
2023/03/24 08:03:59;;;;;;;5.20;4.70;;;15.20;99.90;;;;;;5073432;28;20457;-77
2023/03/24 08:06:53;;;;;;;16.23;12.80;;;15.20;99.90;;;;;;5074962;28;20986;-76
2023/03/24 08:09:23;;;;;;;6.07;5.57;;;15.20;99.90;;;;;;5059774;28;20474;-77
2023/03/24 08:12:00;;;;;;;9.87;8.30;;;15.20;99.90;;;;;;5089873;28;20859;-77
2023/03/24 08:14:27;;;;;;;5.17;4.77;;;15.20;99.90;;;;;;5074096;28;20461;-76
2023/03/24 08:16:53;;;;;;;7.20;4.60;;;15.20;99.90;;;;;;5074053;28;20535;-76
2023/03/24 08:19:21;;;;;;;8.77;7.57;;;15.10;99.90;;;;;;5074110;28;20873;-78
2023/03/24 08:21:50;;;;;;;8.60;7.23;;;15.00;99.90;;;;;;5068530;28;20488;-77
2023/03/24 08:24:23;;;;;;;8.50;6.80;;;15.10;99.90;;;;;;5086015;28;20479;-76
2023/03/24 08:26:58;;;;;;;9.20;7.30;;;15.10;99.90;;;;;;5074166;28;20516;-77
2023/03/24 08:29:25;;;;;;;6.00;4.93;;;15.10;99.90;;;;;;5074255;28;20470;-77
2023/03/24 08:31:54;;;;;;;6.60;5.63;;;15.00;99.90;;;;;;5065217;28;20481;-77
2023/03/24 08:34:21;;;;;;;4.40;4.10;;;15.00;99.90;;;;;;5066069;28;20531;-79
2023/03/24 08:37:00;;;;;;;4.20;3.80;;;15.10;99.90;;;;;;5080306;28;20966;-79
2023/03/24 08:39:27;;;;;;;5.03;4.53;;;15.10;99.90;;;;;;5078323;28;21025;-79
2023/03/24 08:41:54;;;;;;;5.63;5.07;;;15.10;99.90;;;;;;5083906;28;20474;-77
2023/03/24 08:44:25;;;;;;;5.30;4.10;;;15.10;99.90;;;;;;5078196;28;20539;-79
2023/03/24 08:46:52;;;;;;;3.80;3.47;;;15.10;99.90;;;;;;5072400;28;20462;-79
2023/03/24 08:49:21;;;;;;;8.37;7.07;;;15.10;99.90;;;;;;5071636;28;20493;-79
2023/03/24 08:51:50;;;;;;;4.13;3.80;;;15.10;99.90;;;;;;5072532;28;20463;-79
2023/03/24 08:54:24;;;;;;;5.30;4.50;;;15.10;99.90;;;;;;5071037;28;20994;-77
2023/03/24 08:56:52;;;;;;;7.60;5.57;;;15.00;99.90;;;;;;5063504;28;20453;-77
2023/03/24 08:59:19;;;;;;;7.23;5.90;;;15.10;99.90;;;;;;5066533;28;20565;-77
2023/03/24 09:01:46;;;;;;;5.10;4.70;;;15.00;99.90;;;;;;5072655;28;20466;-77
2023/03/24 09:04:15;;;;;;;5.87;5.27;;;15.10;99.90;;;;;;5073132;28;20459;-79
2023/03/24 09:06:42;;;;;;;6.50;4.70;;;15.10;99.90;;;;;;5072154;28;20470;-79
2023/03/24 09:09:22;;;;;;;12.50;11.13;;;15.10;99.90;;;;;;5073966;28;20462;-79
2023/03/24 09:11:51;;;;;;;7.73;6.03;;;15.20;99.90;;;;;;5076547;28;20493;-78
2023/03/24 09:14:18;;;;;;;4.30;3.93;;;15.20;99.90;;;;;;5078575;28;20467;-76
2023/03/24 09:16:47;;;;;;;5.50;4.90;;;15.20;99.90;;;;;;5080232;28;20466;-77
2023/03/24 09:19:14;;;;;;;4.73;4.40;;;15.20;99.90;;;;;;5082452;28;20545;-77
2023/03/24 09:21:42;;;;;;;12.10;10.13;;;15.20;99.90;;;;;;5096515;28;20476;-77
2023/03/24 09:24:18;;;;;;;9.03;7.90;;;15.20;99.90;;;;;;5086258;28;20470;-78
2023/03/24 09:26:47;;;;;;;7.93;5.50;;;15.20;99.90;;;;;;5075397;28;20520;-77
2023/03/24 09:29:14;;;;;;;8.27;5.90;;;15.20;99.90;;;;;;5072929;28;20506;-79
2023/03/24 09:31:43;;;;;;;5.87;5.10;;;15.30;99.90;;;;;;5072229;28;20474;-77
2023/03/24 09:34:12;;;;;;;6.70;6.07;;;15.20;99.90;;;;;;5063968;28;20541;-79
2023/03/24 09:36:44;;;;;;;9.20;7.90;;;15.30;99.90;;;;;;5072343;28;20466;-77
2023/03/24 09:39:11;;;;;;;7.87;7.07;;;15.40;99.90;;;;;;5073032;28;20558;-79
2023/03/24 09:41:43;;;;;;;5.43;4.93;;;15.50;99.90;;;;;;5072721;28;20557;-79
2023/03/24 09:44:22;;;;;;;5.07;4.67;;;15.50;99.90;;;;;;5075967;28;20495;-79
2023/03/24 09:46:53;;;;;;;5.10;4.60;;;15.60;99.90;;;;;;5067580;28;20999;-80
2023/03/24 09:49:24;;;;;;;6.67;6.00;;;15.60;99.90;;;;;;5071357;28;20537;-78
2023/03/24 09:51:53;;;;;;;4.70;4.30;;;15.80;99.90;;;;;;5073096;28;20462;-79
2023/03/24 09:54:28;;;;;;;6.17;5.07;;;15.80;99.90;;;;;;5083925;28;20475;-79
2023/03/24 09:56:57;;;;;;;10.73;9.63;;;15.90;99.90;;;;;;5093096;28;20457;-76
2023/03/24 09:59:34;;;;;;;4.30;3.70;;;16.00;99.90;;;;;;5092324;28;20457;-78
2023/03/24 10:02:05;;;;;;;4.17;3.70;;;16.10;99.90;;;;;;5092607;28;20465;-79
2023/03/24 10:04:32;;;;;;;6.80;4.63;;;16.10;99.90;;;;;;5092861;28;20541;-79
2023/03/24 10:07:06;;;;;;;5.47;4.23;;;16.20;99.90;;;;;;5093274;28;20465;-80
2023/03/24 10:09:37;;;;;;;4.87;4.43;;;16.30;99.90;;;;;;5091834;28;20464;-79
2023/03/24 10:12:20;;;;;;;7.83;7.00;;;16.30;99.90;;;;;;5093199;28;20486;-79
2023/03/24 10:15:03;;;;;;;4.07;3.40;;;16.40;99.90;;;;;;5093616;28;20453;-77
2023/03/24 10:17:45;;;;;;;16.07;12.70;;;16.40;99.90;;;;;;5092479;28;20531;-79
2023/03/24 10:20:24;;;;;;;11.27;9.90;;;16.50;99.90;;;;;;5093482;28;20783;-79
2023/03/24 10:23:01;;;;;;;18.93;12.83;;;16.60;99.90;;;;;;5091762;28;20465;-79
2023/03/24 10:25:50;;;;;;;10.23;9.20;;;16.60;99.90;;;;;;5093126;28;20481;-79
2023/03/24 10:28:20;;;;;;;8.67;7.73;;;16.70;99.90;;;;;;5092968;28;20950;-80
2023/03/24 10:30:57;;;;;;;10.27;8.50;;;16.80;99.90;;;;;;5093265;28;20470;-79
2023/03/24 10:33:26;;;;;;;9.97;8.17;;;16.90;99.90;;;;;;5092001;28;20904;-80
2023/03/24 10:36:02;;;;;;;8.87;7.87;;;16.90;99.90;;;;;;5092775;28;20466;-78
2023/03/24 10:38:29;;;;;;;14.10;12.20;;;17.00;99.90;;;;;;5091842;28;20484;-77
2023/03/24 10:40:58;;;;;;;8.30;4.93;;;17.00;99.90;;;;;;5092866;28;20538;-77
2023/03/24 10:43:27;;;;;;;5.50;5.00;;;17.10;99.90;;;;;;5091724;28;20497;-77
2023/03/24 10:45:58;;;;;;;10.10;8.00;;;17.20;99.90;;;;;;5092276;28;20557;-78
2023/03/24 10:48:44;;;;;;;6.20;5.70;;;17.30;99.90;;;;;;5091988;28;20472;-77
2023/03/24 10:51:19;;;;;;;9.40;8.50;;;17.40;99.90;;;;;;5092440;28;20500;-77
2023/03/24 10:53:48;;;;;;;8.83;7.33;;;17.50;99.90;;;;;;5092670;28;20453;-80
2023/03/24 10:56:19;;;;;;;18.70;16.30;;;17.50;99.90;;;;;;5092341;28;20473;-80
2023/03/24 10:58:48;;;;;;;20.00;17.83;;;17.50;99.90;;;;;;5091793;28;20999;-79
2023/03/24 11:01:36;;;;;;;15.27;11.90;;;17.60;99.90;;;;;;5087839;28;20540;-80
2023/03/24 11:04:06;;;;;;;13.70;11.47;;;17.60;99.90;;;;;;5092656;28;20935;-78
2023/03/24 11:06:46;;;;;;;21.03;14.57;;;17.60;99.90;;;;;;5091961;28;20485;-78
2023/03/24 11:09:25;;;;;;;15.77;12.13;;;17.60;99.90;;;;;;5091148;28;21172;-79
2023/03/24 11:11:52;;;;;;;14.90;13.00;;;17.70;99.90;;;;;;5092205;28;20807;-76
2023/03/24 11:14:24;;;;;;;9.17;7.87;;;17.70;99.90;;;;;;5091540;28;20492;-77
2023/03/24 11:17:02;;;;;;;9.80;8.03;;;17.70;99.90;;;;;;5091694;28;20470;-78
2023/03/24 11:19:31;;;;;;;17.87;14.57;;;17.70;99.90;;;;;;5071988;28;20511;-79
2023/03/24 11:22:05;;;;;;;24.17;20.07;;;17.70;99.90;;;;;;5074086;28;20531;-79
2023/03/24 11:24:38;;;;;;;23.20;18.23;;;17.80;99.90;;;;;;5075268;28;20525;-78
2023/03/24 11:27:06;;;;;;;16.83;13.13;;;17.80;99.90;;;;;;5078907;28;20458;-79
2023/03/24 11:29:38;;;;;;;26.03;18.80;;;17.90;99.90;;;;;;5067544;28;20466;-77
2023/03/24 11:32:15;;;;;;;9.33;7.63;;;17.90;99.90;;;;;;5077697;28;20462;-77
2023/03/24 11:34:56;;;;;;;11.80;10.30;;;18.00;99.90;;;;;;5073319;28;20450;-77
2023/03/24 11:37:25;;;;;;;15.43;12.17;;;18.10;99.90;;;;;;5092979;28;20482;-79
2023/03/24 11:40:16;;;;;;;12.40;9.27;;;18.10;99.90;;;;;;5090054;28;20548;-78
2023/03/24 11:42:45;;;;;;;11.47;9.20;;;18.10;99.90;;;;;;5092973;28;20469;-78
2023/03/24 11:45:27;;;;;;;13.77;10.97;;;18.20;99.90;;;;;;5092311;28;20520;-77
2023/03/24 11:48:02;;;;;;;9.77;8.77;;;18.20;99.90;;;;;;5072645;28;20539;-78
2023/03/24 11:50:31;;;;;;;8.40;7.07;;;18.20;99.90;;;;;;5078054;28;20955;-76
2023/03/24 11:53:10;;;;;;;5.43;4.93;;;18.20;99.90;;;;;;5067603;27;20918;-77
2023/03/24 11:55:46;;;;;;;5.10;4.60;;;18.30;99.90;;;;;;5101213;28;20500;-77
2023/03/24 11:58:29;;;;;;;5.40;4.90;;;18.20;99.90;;;;;;5075211;28;20477;-77
2023/03/24 12:01:00;;;;;;;4.70;4.30;;;18.30;99.90;;;;;;5074796;28;20545;-79
2023/03/24 12:03:55;;;;;;;4.83;4.43;;;18.30;99.90;;;;;;5091960;28;20564;-79
2023/03/24 12:06:36;;;;;;;7.73;4.67;;;18.30;99.90;;;;;;5095294;28;20472;-79
2023/03/24 12:09:18;;;;;;;3.73;3.43;;;18.30;99.90;;;;;;5088399;28;20466;-79
2023/03/24 12:12:16;;;;;;;6.50;5.90;;;18.30;99.90;;;;;;5075229;28;20591;-77
2023/03/24 12:14:58;;;;;;;6.03;4.33;;;18.30;99.90;;;;;;5071921;28;20471;-78
2023/03/24 12:17:28;;;;;;;7.83;5.20;;;18.30;99.90;;;;;;5074658;28;21009;-79
2023/03/24 12:20:17;;;;;;;4.00;3.70;;;18.30;99.90;;;;;;5074660;28;20520;-77
2023/03/24 12:22:54;;;;;;;8.43;7.63;;;18.30;99.90;;;;;;5061005;28;20481;-79
2023/03/24 12:25:42;;;;;;;5.70;5.10;;;18.30;99.90;;;;;;5073974;28;20477;-77
2023/03/24 12:28:37;;;;;;;4.80;3.37;;;18.20;99.90;;;;;;5074524;28;20470;-79
2023/03/24 12:31:14;;;;;;;7.10;5.90;;;18.20;99.90;;;;;;5074476;28;20451;-79
2023/03/24 12:33:52;;;;;;;5.60;5.20;;;18.20;99.90;;;;;;5074994;28;20474;-77
2023/03/24 12:36:43;;;;;;;4.10;3.80;;;18.20;99.90;;;;;;5073989;28;20849;-77
2023/03/24 12:39:12;;;;;;;4.70;3.93;;;18.20;99.90;;;;;;5073786;28;20500;-78
2023/03/24 12:42:02;;;;;;;3.93;3.60;;;18.20;99.90;;;;;;5058126;28;20544;-77
2023/03/24 12:44:55;;;;;;;3.60;3.23;;;18.10;99.90;;;;;;5074350;28;20462;-79
2023/03/24 12:47:39;;;;;;;3.70;2.50;;;18.10;99.90;;;;;;5073957;28;20446;-79
2023/03/24 12:50:27;;;;;;;4.03;3.73;;;18.10;99.90;;;;;;5073303;28;20462;-77
2023/03/24 12:53:15;;;;;;;3.67;3.37;;;18.10;99.90;;;;;;5072080;28;20463;-80
2023/03/24 12:55:50;;;;;;;4.27;3.80;;;18.10;99.90;;;;;;5072659;28;20474;-79
2023/03/24 12:58:22;;;;;;;4.97;4.47;;;18.10;99.90;;;;;;5074179;28;20497;-77
2023/03/24 13:00:59;;;;;;;3.57;3.03;;;18.00;99.90;;;;;;5074363;28;20498;-78
2023/03/24 13:03:32;;;;;;;3.10;2.80;;;18.00;99.90;;;;;;5075722;28;20492;-79
2023/03/24 13:06:13;;;;;;;3.00;2.80;;;18.00;99.90;;;;;;5079950;28;20582;-79
2023/03/24 13:08:54;;;;;;;3.03;2.60;;;17.90;99.90;;;;;;5087099;28;20484;-77
2023/03/24 13:11:37;;;;;;;5.77;5.03;;;17.90;99.90;;;;;;5103506;28;20485;-77
2023/03/24 13:17:04;;;;;;;3.87;3.57;;;17.80;99.90;;;;;;5098777;28;20477;-77
2023/03/24 13:19:33;;;;;;;4.30;2.90;;;17.80;99.90;;;;;;5100040;28;20518;-76
2023/03/24 13:22:02;;;;;;;2.93;2.63;;;17.80;99.90;;;;;;5100209;28;20872;-76